Time;durP1;ratioP1;P1;durP2;ratioP2;P2;SDS_P1;SDS_P2;PMS_P1;PMS_P2;Temp;Humidity;BMP_temperature;BMP_pressure;BME280_temperature;BME280_humidity;BME280_pressure;Samples;Min_cycle;Max_cycle;Signal;HPM_P1;HPM_P2
2022/09/28 00:00:21;;;;;;;12.63;11.27;;;;;;;;;;4976335;28;20232;-76
2022/09/28 00:02:47;;;;;;;11.93;10.93;;;;;;;;;;4978116;28;20233;-76
2022/09/28 00:05:13;;;;;;;12.00;10.97;;;;;;;;;;4972039;28;20599;-76
2022/09/28 00:07:38;;;;;;;11.70;10.80;;;;;;;;;;4995233;28;20240;-75
2022/09/28 00:10:07;;;;;;;12.73;11.70;;;;;;;;;;4973556;28;20682;-76
2022/09/28 00:12:37;;;;;;;12.43;11.23;;;;;;;;;;4980671;28;20711;-76
2022/09/28 00:15:03;;;;;;;12.33;11.37;;;;;;;;;;4974025;28;20224;-75
2022/09/28 00:17:31;;;;;;;12.07;10.90;;;;;;;;;;4986564;28;20712;-76
2022/09/28 00:20:01;;;;;;;11.07;10.03;;;;;;;;;;4979188;28;20217;-75
2022/09/28 00:22:29;;;;;;;11.87;10.67;;;;;;;;;;4990371;28;20228;-75
2022/09/28 00:24:55;;;;;;;11.90;10.30;;;;;;;;;;4960945;28;20235;-75
2022/09/28 00:27:20;;;;;;;11.63;10.37;;;;;;;;;;4973384;28;20228;-75
2022/09/28 00:29:48;;;;;;;11.13;9.90;;;;;;;;;;4941672;28;20809;-76
2022/09/28 00:32:15;;;;;;;8.83;8.03;;;;;;;;;;4976552;28;20709;-76
2022/09/28 00:34:47;;;;;;;9.80;9.10;;;;;;;;;;4971871;28;20229;-76
2022/09/28 00:37:28;;;;;;;9.83;8.87;;;;;;;;;;4968405;28;20224;-76
2022/09/28 00:39:56;;;;;;;10.57;9.47;;;;;;;;;;4975777;28;20228;-76
2022/09/28 00:42:23;;;;;;;10.10;8.33;;;;;;;;;;4960000;28;20710;-76
2022/09/28 00:44:50;;;;;;;9.83;8.93;;;;;;;;;;4959256;28;20217;-76
2022/09/28 00:47:36;;;;;;;10.13;9.33;;;;;;;;;;4981327;28;20235;-76
2022/09/28 00:50:24;;;;;;;10.70;8.47;;;;;;;;;;4995321;28;20221;-76
2022/09/28 00:52:59;;;;;;;9.27;8.50;;;;;;;;;;4993346;28;20584;-76
2022/09/28 00:55:45;;;;;;;10.13;9.20;;;;;;;;;;4998061;28;20276;-75
2022/09/28 00:58:16;;;;;;;10.10;9.03;;;;;;;;;;4993951;28;20629;-76
2022/09/28 01:00:44;;;;;;;9.83;8.93;;;;;;;;;;4978257;28;20316;-76
2022/09/28 01:03:10;;;;;;;10.50;9.53;;;;;;;;;;4963954;28;20240;-75
2022/09/28 01:05:35;;;;;;;9.40;8.53;;;;;;;;;;4962963;28;20231;-76
2022/09/28 01:08:03;;;;;;;10.77;9.70;;;;;;;;;;4980002;28;20224;-76
2022/09/28 01:10:33;;;;;;;11.77;9.93;;;;;;;;;;4965315;28;20827;-76
2022/09/28 01:12:59;;;;;;;10.87;9.77;;;;;;;;;;4997640;28;20444;-76
2022/09/28 01:15:27;;;;;;;10.03;9.23;;;;;;;;;;4965119;28;20706;-76
2022/09/28 01:18:13;;;;;;;10.57;9.57;;;;;;;;;;4977407;28;20718;-76
2022/09/28 01:20:54;;;;;;;21.43;10.87;;;;;;;;;;4955131;28;20251;-75
2022/09/28 01:23:27;;;;;;;12.50;9.70;;;;;;;;;;5002355;28;20217;-76
2022/09/28 01:26:20;;;;;;;13.20;9.47;;;;;;;;;;5012813;28;21087;-75
2022/09/28 01:28:46;;;;;;;21.10;10.23;;;;;;;;;;5014215;28;20296;-75
2022/09/28 01:31:12;;;;;;;67.30;10.13;;;;;;;;;;4976752;28;20251;-75
2022/09/28 01:33:48;;;;;;;40.77;9.50;;;;;;;;;;4980252;28;20236;-76
2022/09/28 01:36:26;;;;;;;60.30;10.07;;;;;;;;;;4960398;28;20661;-75
2022/09/28 01:38:59;;;;;;;78.30;10.13;;;;;;;;;;4980423;28;20286;-76
2022/09/28 01:41:29;;;;;;;83.83;11.17;;;;;;;;;;4983095;28;20659;-76
2022/09/28 01:44:01;;;;;;;46.63;10.37;;;;;;;;;;4998232;28;20851;-76
2022/09/28 01:46:31;;;;;;;121.40;11.60;;;;;;;;;;4978620;28;20388;-76
2022/09/28 01:48:57;;;;;;;73.00;10.43;;;;;;;;;;4951358;28;20256;-76
2022/09/28 01:51:33;;;;;;;49.50;10.10;;;;;;;;;;4979247;28;20231;-76
2022/09/28 01:54:16;;;;;;;85.50;9.90;;;;;;;;;;4960742;28;20225;-75
2022/09/28 01:56:56;;;;;;;64.40;9.80;;;;;;;;;;4963638;28;20230;-75
2022/09/28 01:59:29;;;;;;;46.70;8.77;;;;;;;;;;4976217;28;20240;-75
2022/09/28 02:02:02;;;;;;;64.30;9.20;;;;;;;;;;4963366;28;20232;-75
2022/09/28 02:04:39;;;;;;;35.10;8.37;;;;;;;;;;4952549;28;20225;-75
2022/09/28 02:07:11;;;;;;;70.17;10.10;;;;;;;;;;4977050;28;20232;-76
2022/09/28 02:09:51;;;;;;;25.70;9.30;;;;;;;;;;4977112;28;20774;-76
2022/09/28 02:12:26;;;;;;;20.00;8.70;;;;;;;;;;4996696;28;20216;-76
2022/09/28 02:14:58;;;;;;;31.77;8.83;;;;;;;;;;4982223;28;20220;-76
2022/09/28 02:17:24;;;;;;;19.80;8.40;;;;;;;;;;4978699;28;20699;-76
2022/09/28 02:19:49;;;;;;;39.00;8.77;;;;;;;;;;4963632;28;20231;-76
2022/09/28 02:22:32;;;;;;;36.80;8.60;;;;;;;;;;4978383;28;20225;-76
2022/09/28 02:24:59;;;;;;;15.07;7.97;;;;;;;;;;4979133;28;20244;-75
2022/09/28 02:27:44;;;;;;;8.17;7.40;;;;;;;;;;4982090;28;20216;-76
2022/09/28 02:30:13;;;;;;;8.03;7.23;;;;;;;;;;4979582;28;20229;-75
2022/09/28 02:32:47;;;;;;;12.37;7.23;;;;;;;;;;4964183;28;20694;-75
2022/09/28 02:35:14;;;;;;;7.93;7.27;;;;;;;;;;4995448;28;20296;-76
2022/09/28 02:37:43;;;;;;;8.10;7.33;;;;;;;;;;4966998;28;20220;-76
2022/09/28 02:40:16;;;;;;;7.73;6.80;;;;;;;;;;4977437;28;20225;-77
2022/09/28 02:42:50;;;;;;;7.33;6.73;;;;;;;;;;4993968;28;20315;-76
2022/09/28 02:45:24;;;;;;;8.73;6.57;;;;;;;;;;4994686;28;20243;-75
2022/09/28 02:47:54;;;;;;;8.00;7.40;;;;;;;;;;4970802;28;20302;-76
2022/09/28 02:50:28;;;;;;;8.73;7.93;;;;;;;;;;4989455;28;20236;-76
2022/09/28 02:53:25;;;;;;;11.63;8.10;;;;;;;;;;4994482;28;20857;-75
2022/09/28 02:56:07;;;;;;;7.80;7.00;;;;;;;;;;4962532;28;20232;-75
2022/09/28 02:58:33;;;;;;;8.00;7.40;;;;;;;;;;4982047;28;20608;-75
2022/09/28 03:01:22;;;;;;;8.93;8.23;;;;;;;;;;4994791;28;20224;-76
2022/09/28 03:03:54;;;;;;;8.40;7.60;;;;;;;;;;5005425;28;20675;-77
2022/09/28 03:06:32;;;;;;;8.60;7.93;;;;;;;;;;4959764;28;20679;-75
2022/09/28 03:09:04;;;;;;;8.90;8.00;;;;;;;;;;4961175;28;20722;-76
2022/09/28 03:11:39;;;;;;;8.10;7.50;;;;;;;;;;4976024;28;20234;-75
2022/09/28 03:14:05;;;;;;;9.37;8.47;;;;;;;;;;4990531;28;20757;-75
2022/09/28 03:16:46;;;;;;;9.00;8.20;;;;;;;;;;4971465;28;20250;-75
2022/09/28 03:19:12;;;;;;;9.07;7.83;;;;;;;;;;4984730;28;20217;-75
2022/09/28 03:21:58;;;;;;;8.73;8.03;;;;;;;;;;4960917;28;20225;-75
2022/09/28 03:24:26;;;;;;;9.70;8.90;;;;;;;;;;4949628;28;20233;-76
2022/09/28 03:26:56;;;;;;;9.27;8.63;;;;;;;;;;4967328;28;20324;-75
2022/09/28 03:29:21;;;;;;;10.37;9.57;;;;;;;;;;4998415;28;20260;-76
2022/09/28 03:31:53;;;;;;;9.87;8.97;;;;;;;;;;4975539;28;20252;-76
2022/09/28 03:34:20;;;;;;;10.40;9.50;;;;;;;;;;4999862;28;20641;-75
2022/09/28 03:36:45;;;;;;;9.90;9.10;;;;;;;;;;4992045;28;20312;-75
2022/09/28 03:39:14;;;;;;;11.50;10.40;;;;;;;;;;4975843;28;20212;-75
2022/09/28 03:41:42;;;;;;;10.67;9.83;;;;;;;;;;4960188;28;20244;-75
2022/09/28 03:44:07;;;;;;;10.73;9.83;;;;;;;;;;4974954;28;20225;-74
2022/09/28 03:46:38;;;;;;;10.43;9.53;;;;;;;;;;4975144;28;20238;-75
2022/09/28 03:49:08;;;;;;;10.20;9.30;;;;;;;;;;4983267;28;20358;-75
2022/09/28 03:51:33;;;;;;;10.73;9.90;;;;;;;;;;4992288;28;20248;-75
2022/09/28 03:54:01;;;;;;;11.17;10.07;;;;;;;;;;4960232;28;20225;-75
2022/09/28 03:56:29;;;;;;;11.77;10.77;;;;;;;;;;4977409;28;20228;-75
2022/09/28 03:58:54;;;;;;;10.50;9.50;;;;;;;;;;4978543;28;20226;-75
2022/09/28 04:01:20;;;;;;;11.77;10.73;;;;;;;;;;4975862;28;20219;-75
2022/09/28 04:03:46;;;;;;;12.43;11.27;;;;;;;;;;4995633;28;20240;-77
2022/09/28 04:06:14;;;;;;;12.60;11.50;;;;;;;;;;4962900;28;20717;-75
2022/09/28 04:08:39;;;;;;;12.93;11.83;;;;;;;;;;4977021;28;20220;-75
2022/09/28 04:11:07;;;;;;;12.43;11.37;;;;;;;;;;4978761;28;20221;-75
2022/09/28 04:13:36;;;;;;;12.07;10.97;;;;;;;;;;4973314;28;20244;-75
2022/09/28 04:16:04;;;;;;;13.03;11.93;;;;;;;;;;4992236;28;20230;-75
2022/09/28 04:18:32;;;;;;;12.37;11.30;;;;;;;;;;4944993;28;20224;-75
2022/09/28 04:21:07;;;;;;;11.90;10.80;;;;;;;;;;4994821;28;20992;-75
2022/09/28 04:23:38;;;;;;;10.70;9.73;;;;;;;;;;4999721;28;20240;-75
2022/09/28 04:26:05;;;;;;;11.93;10.83;;;;;;;;;;4982224;28;20228;-75
2022/09/28 04:31:23;;;;;;;12.00;10.80;;;;;;;;;;4969488;28;20209;-75
2022/09/28 04:33:52;;;;;;;11.43;10.43;;;;;;;;;;4959138;28;20258;-75
2022/09/28 04:36:21;;;;;;;12.83;11.63;;;;;;;;;;4999420;28;20213;-76
2022/09/28 04:38:49;;;;;;;13.97;12.67;;;;;;;;;;4965957;28;20221;-75
2022/09/28 04:41:15;;;;;;;12.63;11.60;;;;;;;;;;4993370;28;20312;-75
2022/09/28 04:43:43;;;;;;;13.63;12.40;;;;;;;;;;4979859;28;20228;-76
2022/09/28 04:46:11;;;;;;;13.43;12.17;;;;;;;;;;4978262;28;20286;-75
2022/09/28 04:48:46;;;;;;;13.30;12.10;;;;;;;;;;4967644;28;20235;-75
2022/09/28 04:51:23;;;;;;;14.00;12.77;;;;;;;;;;4986749;28;20251;-74
2022/09/28 04:53:51;;;;;;;13.57;12.33;;;;;;;;;;4965884;28;20224;-75
2022/09/28 04:56:17;;;;;;;13.40;12.20;;;;;;;;;;4977991;28;20238;-74
2022/09/28 04:58:45;;;;;;;14.63;13.23;;;;;;;;;;4995361;28;20660;-74
2022/09/28 05:01:18;;;;;;;15.17;13.73;;;;;;;;;;4981648;28;20304;-74
2022/09/28 05:03:58;;;;;;;13.23;12.00;;;;;;;;;;5000364;28;20229;-75
2022/09/28 05:06:45;;;;;;;12.60;11.50;;;;;;;;;;5011076;28;20298;-73
2022/09/28 05:09:11;;;;;;;12.97;11.67;;;;;;;;;;4996012;28;20232;-73
2022/09/28 05:11:39;;;;;;;12.97;11.83;;;;;;;;;;4964240;28;20216;-74
2022/09/28 05:14:11;;;;;;;13.90;12.70;;;;;;;;;;4995059;28;20715;-76
2022/09/28 05:16:39;;;;;;;12.67;11.47;;;;;;;;;;4997807;28;20321;-75
2022/09/28 05:19:23;;;;;;;13.87;12.57;;;;;;;;;;4997102;28;20722;-73
2022/09/28 05:21:52;;;;;;;13.40;12.03;;;;;;;;;;4985751;28;20216;-73
2022/09/28 05:24:17;;;;;;;13.83;12.57;;;;;;;;;;4995963;28;20223;-73
2022/09/28 05:26:48;;;;;;;13.00;11.67;;;;;;;;;;4963966;28;20359;-75
2022/09/28 05:29:20;;;;;;;11.17;10.20;;;;;;;;;;4996231;28;20270;-74
2022/09/28 05:32:07;;;;;;;12.80;11.57;;;;;;;;;;4970044;28;20231;-75
2022/09/28 05:34:37;;;;;;;11.70;10.57;;;;;;;;;;4981643;28;20232;-75
2022/09/28 05:37:06;;;;;;;13.57;12.27;;;;;;;;;;4989816;28;20851;-75
2022/09/28 05:39:31;;;;;;;13.47;12.07;;;;;;;;;;4980333;28;20233;-75
2022/09/28 05:41:59;;;;;;;14.43;12.20;;;;;;;;;;4999627;28;20247;-75
2022/09/28 05:44:25;;;;;;;13.37;11.93;;;;;;;;;;4978884;28;20604;-75
2022/09/28 05:46:54;;;;;;;13.47;12.10;;;;;;;;;;4994099;28;20220;-75
2022/09/28 05:49:19;;;;;;;15.27;13.87;;;;;;;;;;4980036;28;20262;-76
2022/09/28 05:51:51;;;;;;;15.43;13.83;;;;;;;;;;4963346;28;20233;-76
2022/09/28 05:54:16;;;;;;;16.17;14.37;;;;;;;;;;4986044;28;20229;-76
2022/09/28 05:56:47;;;;;;;14.90;13.23;;;;;;;;;;4980627;28;20212;-75
2022/09/28 05:59:12;;;;;;;14.93;13.47;;;;;;;;;;4983562;28;20216;-76
2022/09/28 06:01:41;;;;;;;15.47;13.97;;;;;;;;;;4981210;28;20213;-76
2022/09/28 06:04:13;;;;;;;15.37;13.77;;;;;;;;;;4996939;28;20233;-76
2022/09/28 06:06:44;;;;;;;15.03;13.60;;;;;;;;;;4981915;28;20249;-77
2022/09/28 06:09:09;;;;;;;16.00;14.30;;;;;;;;;;4993157;28;20327;-74
2022/09/28 06:11:57;;;;;;;16.97;14.47;;;;;;;;;;4983714;28;20340;-76
2022/09/28 06:14:29;;;;;;;15.73;13.80;;;;;;;;;;4972721;28;20231;-74
2022/09/28 06:16:58;;;;;;;16.80;15.00;;;;;;;;;;4993133;28;20597;-74
2022/09/28 06:19:24;;;;;;;17.50;15.80;;;;;;;;;;4960408;28;20709;-74
2022/09/28 06:22:10;;;;;;;18.43;16.53;;;;;;;;;;5008347;28;20367;-74
2022/09/28 06:24:46;;;;;;;19.30;15.60;;;;;;;;;;4997226;28;20717;-74
2022/09/28 06:27:11;;;;;;;18.10;16.10;;;;;;;;;;4996206;28;20228;-74
2022/09/28 06:29:37;;;;;;;16.97;15.27;;;;;;;;;;4984433;28;20221;-74
2022/09/28 06:32:03;;;;;;;17.50;15.80;;;;;;;;;;4995254;28;20205;-76
2022/09/28 06:34:29;;;;;;;20.23;16.57;;;;;;;;;;4963103;28;20221;-72
2022/09/28 06:36:54;;;;;;;20.60;16.30;;;;;;;;;;4965753;28;20236;-72
2022/09/28 06:39:20;;;;;;;18.87;16.87;;;;;;;;;;4959524;28;20231;-74
2022/09/28 06:41:51;;;;;;;19.33;17.23;;;;;;;;;;4978119;28;20246;-72
2022/09/28 06:44:19;;;;;;;18.33;16.43;;;;;;;;;;4964326;28;20217;-74
2022/09/28 06:47:04;;;;;;;20.47;17.17;;;;;;;;;;4996273;28;20283;-74
2022/09/28 06:49:54;;;;;;;18.80;16.80;;;;;;;;;;4981722;28;20233;-72
2022/09/28 06:52:52;;;;;;;18.80;16.90;;;;;;;;;;4956783;28;20245;-72
2022/09/28 06:55:47;;;;;;;18.00;16.30;;;;;;;;;;4981468;28;20320;-75
2022/09/28 06:58:16;;;;;;;18.77;16.80;;;;;;;;;;4991729;28;20248;-72
2022/09/28 07:00:47;;;;;;;17.97;16.17;;;;;;;;;;4977234;28;20223;-74
2022/09/28 07:03:14;;;;;;;18.03;16.13;;;;;;;;;;4958969;28;20230;-74
2022/09/28 07:05:58;;;;;;;18.93;17.13;;;;;;;;;;4991313;28;20287;-72
2022/09/28 07:09:01;;;;;;;18.90;17.00;;;;;;;;;;4976997;28;20224;-73
2022/09/28 07:11:52;;;;;;;20.03;17.70;;;;;;;;;;4972796;28;20225;-75
2022/09/28 07:14:38;;;;;;;19.83;17.77;;;;;;;;;;4975611;28;20849;-75
2022/09/28 07:17:07;;;;;;;19.77;17.07;;;;;;;;;;4962332;28;20831;-74
2022/09/28 07:19:35;;;;;;;20.00;18.03;;;;;;;;;;4995729;28;20263;-73
2022/09/28 07:22:01;;;;;;;18.57;16.77;;;;;;;;;;5008830;28;20248;-71
2022/09/28 07:24:29;;;;;;;18.77;16.87;;;;;;;;;;4990320;28;20243;-76
2022/09/28 07:27:27;;;;;;;18.27;16.57;;;;;;;;;;4911714;28;20697;-73
2022/09/28 07:30:00;;;;;;;16.83;15.40;;;;;;;;;;4984412;28;20617;-75
2022/09/28 07:32:39;;;;;;;18.33;16.63;;;;;;;;;;5007543;28;20232;-72
2022/09/28 07:35:23;;;;;;;19.43;17.43;;;;;;;;;;5008249;28;20286;-73
2022/09/28 07:38:03;;;;;;;17.93;16.33;;;;;;;;;;4977088;28;20283;-73
2022/09/28 07:43:21;;;;;;;19.70;17.80;;;;;;;;;;4997416;28;20351;-74
2022/09/28 07:45:54;;;;;;;18.90;17.07;;;;;;;;;;4962560;28;20299;-73
2022/09/28 07:48:24;;;;;;;19.43;17.33;;;;;;;;;;4977366;28;20224;-74
2022/09/28 07:51:07;;;;;;;17.67;16.13;;;;;;;;;;4951897;28;20312;-74
2022/09/28 07:53:37;;;;;;;18.77;16.93;;;;;;;;;;4978214;28;20229;-74
2022/09/28 07:56:22;;;;;;;17.07;15.27;;;;;;;;;;4997445;28;20323;-73
2022/09/28 07:59:06;;;;;;;17.83;16.07;;;;;;;;;;4979811;28;20232;-75
2022/09/28 08:01:41;;;;;;;19.27;16.67;;;;;;;;;;5009350;28;20312;-71
2022/09/28 08:04:11;;;;;;;18.87;16.93;;;;;;;;;;4979097;28;20232;-75
2022/09/28 08:06:43;;;;;;;21.63;16.63;;;;;;;;;;4963099;28;20598;-73
2022/09/28 08:09:11;;;;;;;18.33;16.53;;;;;;;;;;4977969;28;20295;-73
2022/09/28 08:11:59;;;;;;;18.27;16.57;;;;;;;;;;4970974;28;20227;-73
2022/09/28 08:14:41;;;;;;;18.90;16.87;;;;;;;;;;4979131;28;20231;-73
2022/09/28 08:17:27;;;;;;;18.17;16.47;;;;;;;;;;4995524;28;20251;-73
2022/09/28 08:22:40;;;;;;;19.10;17.23;;;;;;;;;;4962029;28;20739;-74
2022/09/28 08:25:06;;;;;;;20.87;17.73;;;;;;;;;;4959172;28;20286;-74
2022/09/28 08:27:34;;;;;;;20.30;18.07;;;;;;;;;;4974254;28;20221;-72
2022/09/28 08:30:00;;;;;;;18.27;16.43;;;;;;;;;;4979270;28;20606;-75
2022/09/28 08:32:58;;;;;;;17.73;16.13;;;;;;;;;;4958477;28;20242;-73
2022/09/28 08:35:44;;;;;;;18.77;16.63;;;;;;;;;;4997316;28;20281;-74
2022/09/28 08:38:28;;;;;;;18.67;16.93;;;;;;;;;;4976758;28;20224;-75
2022/09/28 08:41:27;;;;;;;18.57;16.77;;;;;;;;;;4985790;28;20598;-72
2022/09/28 08:44:03;;;;;;;18.13;16.30;;;;;;;;;;4970602;28;20237;-72
2022/09/28 08:46:57;;;;;;;18.00;15.37;;;;;;;;;;4980423;28;20683;-72
2022/09/28 08:49:52;;;;;;;17.67;16.07;;;;;;;;;;4979164;28;20296;-74
2022/09/28 08:52:38;;;;;;;16.77;15.07;;;;;;;;;;4991732;28;20308;-73
2022/09/28 08:55:22;;;;;;;17.53;15.87;;;;;;;;;;4991903;28;20721;-74
2022/09/28 08:58:00;;;;;;;16.00;14.40;;;;;;;;;;4977988;28;20731;-74
2022/09/28 09:00:39;;;;;;;15.30;13.80;;;;;;;;;;4991605;28;20593;-74
2022/09/28 09:03:12;;;;;;;16.93;15.43;;;;;;;;;;4977854;28;20240;-73
2022/09/28 09:06:02;;;;;;;16.77;15.17;;;;;;;;;;4974054;28;20224;-74
2022/09/28 09:09:06;;;;;;;17.33;15.53;;;;;;;;;;4998539;28;20229;-73
2022/09/28 09:11:56;;;;;;;17.47;15.63;;;;;;;;;;4962353;28;20229;-74
2022/09/28 09:14:34;;;;;;;17.73;16.00;;;;;;;;;;4989897;28;20248;-74
2022/09/28 09:17:17;;;;;;;18.67;15.43;;;;;;;;;;4966491;28;20351;-74
2022/09/28 09:21:05;;;;;;;18.00;16.10;;;;;;;;;;4919660;29;20228;-73
2022/09/28 09:23:56;;;;;;;17.00;15.17;;;;;;;;;;4892019;29;20350;-74
2022/09/28 09:26:34;;;;;;;18.70;16.77;;;;;;;;;;4972904;28;20706;-73
2022/09/28 09:29:33;;;;;;;17.93;15.27;;;;;;;;;;4982583;28;20212;-73
2022/09/28 09:32:15;;;;;;;18.87;16.87;;;;;;;;;;4978923;28;20232;-73
2022/09/28 09:34:45;;;;;;;20.00;17.77;;;;;;;;;;4982279;28;20278;-73
2022/09/28 09:38:00;;;;;;;20.43;18.23;;;;;;;;;;5012442;28;20631;-73
2022/09/28 09:41:27;;;;;;;21.73;19.53;;;;;;;;;;4988428;28;20312;-74
2022/09/28 09:44:14;;;;;;;21.50;19.27;;;;;;;;;;5009044;28;20244;-74
2022/09/28 09:47:08;;;;;;;21.73;19.43;;;;;;;;;;5003219;28;20225;-73
2022/09/28 09:50:10;;;;;;;24.43;19.83;;;;;;;;;;4965717;28;20224;-74
2022/09/28 09:52:46;;;;;;;23.17;19.80;;;;;;;;;;4977466;28;20229;-74
2022/09/28 09:55:20;;;;;;;22.20;19.90;;;;;;;;;;4993673;28;20294;-74
2022/09/28 09:58:32;;;;;;;22.07;18.57;;;;;;;;;;4980079;28;20307;-73
2022/09/28 10:01:16;;;;;;;21.27;19.07;;;;;;;;;;4984722;28;20219;-74
2022/09/28 10:04:01;;;;;;;22.27;19.70;;;;;;;;;;5011198;28;20224;-74
2022/09/28 10:06:36;;;;;;;21.30;18.97;;;;;;;;;;4978232;28;20228;-73
2022/09/28 10:09:03;;;;;;;21.17;19.03;;;;;;;;;;5013187;28;20243;-74
2022/09/28 10:11:36;;;;;;;21.13;18.80;;;;;;;;;;4996639;28;20229;-74
2022/09/28 10:14:12;;;;;;;19.67;17.67;;;;;;;;;;4976661;28;20233;-74
2022/09/28 10:16:42;;;;;;;19.03;17.03;;;;;;;;;;4989918;28;20656;-74
2022/09/28 10:19:15;;;;;;;20.83;18.63;;;;;;;;;;4990485;28;20282;-74
2022/09/28 10:22:04;;;;;;;20.73;18.53;;;;;;;;;;4996152;28;20263;-73
2022/09/28 10:24:39;;;;;;;19.17;17.27;;;;;;;;;;4976892;28;20232;-74
2022/09/28 10:27:12;;;;;;;18.83;17.07;;;;;;;;;;4976149;28;20282;-74
2022/09/28 10:30:01;;;;;;;17.97;16.20;;;;;;;;;;4995559;28;20220;-72
2022/09/28 10:32:36;;;;;;;16.60;15.00;;;;;;;;;;4991939;28;20263;-73
2022/09/28 10:35:18;;;;;;;17.00;15.40;;;;;;;;;;4995497;28;20283;-74
2022/09/28 10:38:02;;;;;;;16.30;14.53;;;;;;;;;;4986484;28;20236;-74
2022/09/28 10:41:02;;;;;;;16.17;14.67;;;;;;;;;;4951798;28;20336;-74
2022/09/28 10:44:04;;;;;;;17.60;15.80;;;;;;;;;;4963700;28;20702;-74
2022/09/28 10:46:34;;;;;;;15.60;14.10;;;;;;;;;;4993263;28;20859;-74
2022/09/28 10:49:08;;;;;;;16.07;14.67;;;;;;;;;;4962611;28;20247;-74
2022/09/28 10:51:50;;;;;;;15.67;14.23;;;;;;;;;;4976776;28;20220;-73
2022/09/28 10:54:29;;;;;;;16.57;14.87;;;;;;;;;;4961733;28;20239;-73
2022/09/28 10:56:57;;;;;;;15.67;13.90;;;;;;;;;;4992252;28;20695;-74
2022/09/28 10:59:41;;;;;;;13.27;12.07;;;;;;;;;;4991464;28;20232;-74
2022/09/28 11:02:31;;;;;;;15.07;13.47;;;;;;;;;;4966080;28;20639;-74
2022/09/28 11:05:03;;;;;;;14.07;12.83;;;;;;;;;;4965112;28;20234;-74
2022/09/28 11:07:45;;;;;;;22.30;20.43;;;;;;;;;;4982763;28;20266;-74
2022/09/28 11:10:23;;;;;;;13.07;11.83;;;;;;;;;;4974522;28;20224;-74
2022/09/28 11:12:55;;;;;;;12.77;11.77;;;;;;;;;;4994855;28;20252;-73
2022/09/28 11:15:30;;;;;;;13.83;12.33;;;;;;;;;;4976321;28;20224;-74
2022/09/28 11:18:17;;;;;;;13.17;11.87;;;;;;;;;;4979224;28;20312;-74
2022/09/28 11:20:42;;;;;;;12.93;11.63;;;;;;;;;;4995561;28;20319;-74
2022/09/28 11:23:24;;;;;;;13.13;11.83;;;;;;;;;;4997531;28;20708;-74
2022/09/28 11:26:01;;;;;;;12.07;11.07;;;;;;;;;;4978806;28;20228;-74
2022/09/28 11:28:33;;;;;;;13.30;12.10;;;;;;;;;;4974121;28;20351;-74
2022/09/28 11:31:07;;;;;;;11.10;10.00;;;;;;;;;;4956597;28;20224;-74
2022/09/28 11:34:15;;;;;;;9.37;8.67;;;;;;;;;;4973866;28;20232;-73
2022/09/28 11:37:09;;;;;;;9.70;8.87;;;;;;;;;;4951644;28;20232;-74
2022/09/28 11:40:02;;;;;;;9.43;8.63;;;;;;;;;;4975645;28;20224;-73
2022/09/28 11:42:37;;;;;;;9.23;8.47;;;;;;;;;;4960865;28;20320;-74
2022/09/28 11:45:34;;;;;;;9.33;8.27;;;;;;;;;;4959433;28;20228;-75
2022/09/28 11:48:10;;;;;;;8.77;7.93;;;;;;;;;;4993804;28;20255;-74
2022/09/28 11:50:54;;;;;;;9.33;8.37;;;;;;;;;;4961314;28;20232;-74
2022/09/28 11:53:33;;;;;;;9.63;8.83;;;;;;;;;;4994130;28;20235;-74
2022/09/28 11:56:27;;;;;;;8.80;7.93;;;;;;;;;;4957129;28;20614;-74
2022/09/28 11:59:02;;;;;;;8.57;7.63;;;;;;;;;;4958625;28;20616;-74
2022/09/28 12:01:47;;;;;;;7.30;6.60;;;;;;;;;;4955369;28;20225;-74
2022/09/28 12:04:38;;;;;;;11.00;7.70;;;;;;;;;;4973624;28;20217;-74
2022/09/28 12:07:11;;;;;;;7.60;6.90;;;;;;;;;;4978081;28;20229;-74
2022/09/28 12:09:40;;;;;;;8.73;6.10;;;;;;;;;;4992790;28;20220;-74
2022/09/28 12:12:27;;;;;;;6.97;6.37;;;;;;;;;;4978134;28;20224;-73
2022/09/28 12:14:59;;;;;;;6.87;6.17;;;;;;;;;;4993088;28;20231;-74
2022/09/28 12:17:31;;;;;;;5.87;5.30;;;;;;;;;;4960327;28;20229;-74
2022/09/28 12:20:12;;;;;;;6.60;5.30;;;;;;;;;;4978164;28;20617;-73
2022/09/28 12:22:44;;;;;;;5.70;5.30;;;;;;;;;;4991726;28;20351;-73
2022/09/28 12:25:13;;;;;;;5.13;4.73;;;;;;;;;;4960264;28;20224;-74
2022/09/28 12:27:45;;;;;;;5.80;5.30;;;;;;;;;;4981788;28;20302;-73
2022/09/28 12:30:15;;;;;;;5.00;4.57;;;;;;;;;;4989094;28;20222;-73
2022/09/28 12:32:47;;;;;;;5.43;5.10;;;;;;;;;;4976945;28;20225;-72
2022/09/28 12:35:14;;;;;;;5.30;4.90;;;;;;;;;;4961230;28;20278;-73
2022/09/28 12:38:07;;;;;;;5.53;5.13;;;;;;;;;;4995158;28;20227;-74
2022/09/28 12:41:00;;;;;;;6.07;5.53;;;;;;;;;;5005292;28;20221;-75
2022/09/28 12:43:44;;;;;;;5.57;5.00;;;;;;;;;;4980480;28;20240;-74
2022/09/28 12:46:12;;;;;;;5.93;5.30;;;;;;;;;;4977644;28;20246;-74
2022/09/28 12:48:56;;;;;;;5.43;4.93;;;;;;;;;;5012533;28;20229;-74
2022/09/28 12:51:51;;;;;;;5.77;5.27;;;;;;;;;;5002729;28;20296;-74
2022/09/28 12:54:41;;;;;;;6.40;5.80;;;;;;;;;;4978902;28;20229;-74
2022/09/28 12:57:17;;;;;;;6.33;5.83;;;;;;;;;;4995115;28;20220;-74
2022/09/28 12:59:59;;;;;;;7.47;6.80;;;;;;;;;;5006754;28;20239;-74
2022/09/28 13:02:31;;;;;;;6.67;6.03;;;;;;;;;;4975438;28;20773;-74
2022/09/28 13:05:04;;;;;;;7.83;7.00;;;;;;;;;;5007273;28;20225;-73
2022/09/28 13:07:56;;;;;;;7.90;7.30;;;;;;;;;;4989676;28;20268;-73
2022/09/28 13:10:51;;;;;;;11.30;10.40;;;;;;;;;;4994699;28;20644;-74
2022/09/28 13:13:41;;;;;;;10.77;9.87;;;;;;;;;;5010652;28;20267;-74
2022/09/28 13:16:16;;;;;;;13.33;10.90;;;;;;;;;;4994124;28;20592;-74
2022/09/28 13:19:08;;;;;;;12.60;10.10;;;;;;;;;;4978632;28;20231;-74
2022/09/28 13:21:37;;;;;;;11.20;10.23;;;;;;;;;;4975545;28;20224;-75
2022/09/28 13:24:04;;;;;;;11.53;10.20;;;;;;;;;;5011531;28;20229;-75
2022/09/28 13:26:35;;;;;;;11.30;10.30;;;;;;;;;;4984657;28;20237;-75
2022/09/28 13:29:13;;;;;;;10.00;9.03;;;;;;;;;;4996878;28;20645;-74
2022/09/28 13:31:45;;;;;;;8.70;7.87;;;;;;;;;;4980186;28;20305;-74
2022/09/28 13:34:19;;;;;;;9.27;8.37;;;;;;;;;;4992258;28;20251;-74
2022/09/28 13:37:10;;;;;;;9.10;8.20;;;;;;;;;;4965574;28;20768;-74
2022/09/28 13:39:43;;;;;;;9.70;8.90;;;;;;;;;;4981986;28;20235;-74
2022/09/28 13:42:22;;;;;;;26.57;20.77;;;;;;;;;;5010441;28;20227;-74
2022/09/28 13:45:12;;;;;;;14.17;10.03;;;;;;;;;;4981564;28;20771;-75
2022/09/28 13:48:01;;;;;;;10.13;9.23;;;;;;;;;;4991173;28;20713;-75
2022/09/28 13:50:55;;;;;;;11.20;9.43;;;;;;;;;;4996179;28;20299;-74
2022/09/28 13:53:47;;;;;;;10.23;9.33;;;;;;;;;;4981786;28;20239;-74
2022/09/28 13:56:25;;;;;;;10.50;9.50;;;;;;;;;;4979700;28;20224;-75
2022/09/28 13:58:55;;;;;;;9.77;8.87;;;;;;;;;;4998913;28;20224;-76
2022/09/28 14:01:37;;;;;;;10.13;9.13;;;;;;;;;;4977067;28;20754;-76
2022/09/28 14:04:14;;;;;;;9.77;8.77;;;;;;;;;;4969210;28;20232;-73
2022/09/28 14:06:41;;;;;;;10.27;9.27;;;;;;;;;;4987523;28;20709;-75
2022/09/28 14:09:12;;;;;;;9.70;8.90;;;;;;;;;;4976831;28;20225;-75
2022/09/28 14:11:57;;;;;;;9.57;8.53;;;;;;;;;;4991177;28;20316;-76
2022/09/28 14:14:26;;;;;;;10.00;9.10;;;;;;;;;;4998565;28;20239;-74
2022/09/28 14:17:19;;;;;;;12.10;10.90;;;;;;;;;;4994197;28;20299;-76
2022/09/28 14:20:04;;;;;;;9.73;8.93;;;;;;;;;;4984732;28;20229;-74
2022/09/28 14:22:41;;;;;;;9.20;8.40;;;;;;;;;;4988797;28;20225;-75
2022/09/28 14:25:30;;;;;;;9.73;8.83;;;;;;;;;;4999768;28;20236;-74
2022/09/28 14:28:05;;;;;;;9.47;8.67;;;;;;;;;;4981080;28;20244;-74
2022/09/28 14:30:51;;;;;;;9.40;8.43;;;;;;;;;;5012616;28;20646;-74
2022/09/28 14:33:20;;;;;;;10.00;9.10;;;;;;;;;;4977402;28;20634;-75
2022/09/28 14:35:56;;;;;;;8.47;7.77;;;;;;;;;;5009234;28;20224;-74
2022/09/28 14:41:32;;;;;;;8.83;8.23;;;;;;;;;;4992076;28;20295;-76
2022/09/28 14:44:15;;;;;;;8.70;8.00;;;;;;;;;;4958998;28;20252;-77
2022/09/28 14:46:44;;;;;;;8.83;7.93;;;;;;;;;;4997261;28;20224;-75
2022/09/28 14:49:22;;;;;;;7.97;7.33;;;;;;;;;;4973032;28;20268;-75
2022/09/28 14:51:57;;;;;;;9.57;8.77;;;;;;;;;;4995854;28;20655;-75
2022/09/28 14:54:25;;;;;;;9.70;8.83;;;;;;;;;;4986253;28;21303;-75
2022/09/28 14:56:50;;;;;;;9.50;8.70;;;;;;;;;;4981367;28;20332;-76
2022/09/28 14:59:26;;;;;;;10.00;9.10;;;;;;;;;;5011035;28;20375;-75
2022/09/28 15:02:09;;;;;;;9.40;8.57;;;;;;;;;;4959419;28;20588;-76
2022/09/28 15:04:48;;;;;;;9.20;8.50;;;;;;;;;;4978576;28;20248;-76
2022/09/28 15:07:34;;;;;;;9.17;8.47;;;;;;;;;;4991588;28;20221;-75
2022/09/28 15:10:01;;;;;;;9.13;8.43;;;;;;;;;;4980520;28;20671;-75
2022/09/28 15:12:31;;;;;;;9.67;8.77;;;;;;;;;;4991681;28;20216;-75
2022/09/28 15:15:03;;;;;;;9.43;8.63;;;;;;;;;;4994102;28;20219;-74
2022/09/28 15:17:36;;;;;;;9.33;8.53;;;;;;;;;;5013728;28;20683;-74
2022/09/28 15:20:22;;;;;;;9.77;8.97;;;;;;;;;;4978066;28;20228;-75
2022/09/28 15:22:56;;;;;;;8.93;8.13;;;;;;;;;;5010212;28;20236;-76
2022/09/28 15:25:24;;;;;;;8.00;7.30;;;;;;;;;;4981566;28;20234;-75
2022/09/28 15:28:03;;;;;;;8.53;7.70;;;;;;;;;;4985747;28;20220;-72
2022/09/28 15:30:33;;;;;;;8.57;7.77;;;;;;;;;;4978079;28;20213;-72